createdAt,value
2019-03-22T00:00:37.268Z,96786
2019-03-22T00:01:46.810Z,96787
2019-03-22T00:02:56.349Z,96784
2019-03-22T00:04:05.901Z,96783
2019-03-22T00:05:15.425Z,96781
2019-03-22T00:06:24.979Z,96780
2019-03-22T00:07:34.525Z,96777
2019-03-22T00:08:44.064Z,96780
2019-03-22T00:09:53.626Z,96781
2019-03-22T00:11:03.248Z,96778
2019-03-22T00:12:12.758Z,96779
2019-03-22T00:13:22.295Z,96776
2019-03-22T00:14:31.848Z,96774
2019-03-22T00:15:41.444Z,96776
2019-03-22T00:16:50.952Z,96776
2019-03-22T00:18:00.483Z,96772
2019-03-22T00:19:10.046Z,96769
2019-03-22T00:20:19.566Z,96774
2019-03-22T00:21:29.106Z,96768
2019-03-22T00:22:38.651Z,96768
2019-03-22T00:23:48.210Z,96770
2019-03-22T00:24:57.724Z,96770
2019-03-22T00:26:07.275Z,96770
2019-03-22T00:27:17.016Z,96771
2019-03-22T00:28:26.322Z,96771
2019-03-22T00:29:35.863Z,96768
2019-03-22T00:30:45.424Z,96773
2019-03-22T00:31:55.984Z,96768
2019-03-22T00:33:05.504Z,96765
2019-03-22T00:34:15.040Z,96763
2019-03-22T00:35:24.579Z,96761
2019-03-22T00:36:34.133Z,96758
2019-03-22T00:37:43.642Z,96761
2019-03-22T00:38:53.186Z,96761
2019-03-22T00:40:02.719Z,96761
2019-03-22T00:41:12.270Z,96764
2019-03-22T00:42:21.799Z,96762
2019-03-22T00:43:31.349Z,96760
2019-03-22T00:44:40.913Z,96766
2019-03-22T00:45:50.471Z,96758
2019-03-22T00:47:00.007Z,96760
2019-03-22T00:48:09.538Z,96760
2019-03-22T00:49:19.090Z,96760
2019-03-22T00:50:28.633Z,96758
2019-03-22T00:51:38.177Z,96756
2019-03-22T00:52:47.726Z,96751
2019-03-22T00:53:57.275Z,96753
2019-03-22T00:55:06.811Z,96749
2019-03-22T00:56:16.332Z,96751
2019-03-22T00:57:28.583Z,96748
2019-03-22T00:58:35.490Z,96749
2019-03-22T00:59:45.042Z,96750
2019-03-22T01:00:54.644Z,96748
2019-03-22T01:02:04.262Z,96749
2019-03-22T01:03:13.804Z,96746
2019-03-22T01:04:23.350Z,96745
2019-03-22T01:05:32.882Z,96745
2019-03-22T01:06:42.422Z,96748
2019-03-22T01:07:51.955Z,96745
2019-03-22T01:09:01.490Z,96748
2019-03-22T01:10:11.064Z,96741
2019-03-22T01:11:20.635Z,96745
2019-03-22T01:12:30.177Z,96744
2019-03-22T01:13:39.727Z,96745
2019-03-22T01:14:49.242Z,96745
2019-03-22T01:15:58.778Z,96745
2019-03-22T01:17:08.304Z,96743
2019-03-22T01:18:17.863Z,96741
2019-03-22T01:19:27.416Z,96739
2019-03-22T01:20:36.957Z,96742
2019-03-22T01:21:46.494Z,96740
2019-03-22T01:22:56.053Z,96739
2019-03-22T01:24:05.586Z,96741
2019-03-22T01:25:15.137Z,96731
2019-03-22T01:26:24.673Z,96736
2019-03-22T01:27:40.123Z,96738
2019-03-22T01:28:44.702Z,96735
2019-03-22T01:29:54.239Z,96741
2019-03-22T01:31:03.779Z,96735
2019-03-22T01:32:13.309Z,96742
2019-03-22T01:33:22.867Z,96736
2019-03-22T01:34:32.422Z,96732
2019-03-22T01:35:41.960Z,96738
2019-03-22T01:36:51.491Z,96739
2019-03-22T01:38:01.041Z,96735
2019-03-22T01:39:10.585Z,96734
2019-03-22T01:40:20.143Z,96735
2019-03-22T01:41:29.730Z,96735
2019-03-22T01:42:39.370Z,96729
2019-03-22T01:43:49.048Z,96730
2019-03-22T01:44:58.734Z,96729
2019-03-22T01:46:08.295Z,96725
2019-03-22T01:47:17.852Z,96727
2019-03-22T01:48:27.392Z,96724
2019-03-22T01:49:36.920Z,96726
2019-03-22T01:50:46.481Z,96728
2019-03-22T01:51:57.014Z,96723
2019-03-22T01:53:06.534Z,96726
2019-03-22T01:54:16.061Z,96722
2019-03-22T01:55:25.620Z,96722
2019-03-22T01:56:35.148Z,96724
2019-03-22T01:57:52.794Z,96722
2019-03-22T01:58:55.170Z,96720
2019-03-22T02:00:04.729Z,96722
2019-03-22T02:01:14.272Z,96721
2019-03-22T02:02:23.806Z,96717
2019-03-22T02:03:33.356Z,96720
2019-03-22T02:04:42.900Z,96717
2019-03-22T02:05:52.455Z,96719
2019-03-22T02:07:02.008Z,96725
2019-03-22T02:08:11.546Z,96720
2019-03-22T02:09:21.085Z,96722
2019-03-22T02:10:30.643Z,96715
2019-03-22T02:11:40.170Z,96713
2019-03-22T02:12:49.745Z,96715
2019-03-22T02:13:59.237Z,96714
2019-03-22T02:15:08.771Z,96712
2019-03-22T02:16:19.320Z,96716
2019-03-22T02:17:28.843Z,96714
2019-03-22T02:18:38.402Z,96712
2019-03-22T02:19:47.935Z,96712
2019-03-22T02:20:57.491Z,96711
2019-03-22T02:22:07.038Z,96711
2019-03-22T02:23:16.580Z,96708
2019-03-22T02:24:26.113Z,96706
2019-03-22T02:25:35.666Z,96706
2019-03-22T02:26:45.235Z,96708
2019-03-22T02:28:03.630Z,96709
2019-03-22T02:29:05.303Z,96710
2019-03-22T02:30:14.879Z,96712
2019-03-22T02:31:24.409Z,96710
2019-03-22T02:32:33.942Z,96709
2019-03-22T02:33:43.495Z,96708
2019-03-22T02:34:52.999Z,96711
2019-03-22T02:36:02.556Z,96716
2019-03-22T02:37:12.082Z,96716
2019-03-22T02:38:21.625Z,96713
2019-03-22T02:39:31.318Z,96719
2019-03-22T02:40:40.718Z,96713
2019-03-22T02:41:50.253Z,96718
2019-03-22T02:42:59.774Z,96718
2019-03-22T02:44:09.324Z,96717
2019-03-22T02:45:18.882Z,96713
2019-03-22T02:46:28.441Z,96714
2019-03-22T02:47:38.046Z,96711
2019-03-22T02:48:47.510Z,96710
2019-03-22T02:49:57.058Z,96713
2019-03-22T02:51:07.605Z,96712
2019-03-22T02:52:17.117Z,96712
2019-03-22T02:53:26.671Z,96712
2019-03-22T02:54:37.179Z,96712
2019-03-22T02:55:46.757Z,96710
2019-03-22T02:56:56.274Z,96714
2019-03-22T02:58:19.612Z,96711
2019-03-22T02:59:16.361Z,96711
2019-03-22T03:00:25.892Z,96712
2019-03-22T03:01:35.422Z,96711
2019-03-22T03:02:44.955Z,96708
2019-03-22T03:03:54.474Z,96708
2019-03-22T03:05:04.045Z,96709
2019-03-22T03:06:13.609Z,96709
2019-03-22T03:07:23.134Z,96714
2019-03-22T03:08:32.673Z,96711
2019-03-22T03:09:42.205Z,96714
2019-03-22T03:10:51.763Z,96714
2019-03-22T03:12:01.306Z,96714
2019-03-22T03:13:10.838Z,96715
2019-03-22T03:14:20.372Z,96718
2019-03-22T03:15:29.908Z,96715
2019-03-22T03:16:39.484Z,96709
2019-03-22T03:17:49.047Z,96714
2019-03-22T03:18:58.550Z,96714
2019-03-22T03:20:08.096Z,96714
2019-03-22T03:21:17.654Z,96715
2019-03-22T03:22:27.192Z,96714
2019-03-22T03:23:36.721Z,96713
2019-03-22T03:24:46.260Z,96713
2019-03-22T03:25:55.840Z,96715
2019-03-22T03:27:05.386Z,96712
2019-03-22T03:28:14.955Z,96713
2019-03-22T03:29:25.491Z,96714
2019-03-22T03:30:35.047Z,96713
2019-03-22T03:31:44.596Z,96710
2019-03-22T03:32:54.133Z,96707
2019-03-22T03:34:03.738Z,96712
2019-03-22T03:35:13.181Z,96710
2019-03-22T03:36:22.769Z,96709
2019-03-22T03:37:32.338Z,96707
2019-03-22T03:38:41.877Z,96713
2019-03-22T03:39:51.430Z,96711
2019-03-22T03:41:00.970Z,96709
2019-03-22T03:42:10.499Z,96713
2019-03-22T03:43:20.046Z,96713
2019-03-22T03:44:29.571Z,96713
2019-03-22T03:45:39.090Z,96709
2019-03-22T03:46:49.634Z,96708
2019-03-22T03:48:00.165Z,96712
2019-03-22T03:49:09.686Z,96707
2019-03-22T03:50:19.238Z,96712
2019-03-22T03:51:28.790Z,96711
2019-03-22T03:52:39.541Z,96714
2019-03-22T03:53:47.842Z,96712
2019-03-22T03:54:57.382Z,96712
2019-03-22T03:56:06.929Z,96711
2019-03-22T03:57:16.462Z,96707
2019-03-22T03:58:25.986Z,96708
2019-03-22T03:59:35.537Z,96711
2019-03-22T04:00:45.057Z,96709
2019-03-22T04:01:54.602Z,96706
2019-03-22T04:03:04.146Z,96712
2019-03-22T04:04:13.692Z,96711
2019-03-22T04:05:23.204Z,96703
2019-03-22T04:06:32.761Z,96710
2019-03-22T04:07:42.309Z,96705
2019-03-22T04:08:51.844Z,96706
2019-03-22T04:10:01.385Z,96706
2019-03-22T04:11:10.958Z,96701
2019-03-22T04:12:20.466Z,96710
2019-03-22T04:13:30.006Z,96707
2019-03-22T04:14:39.517Z,96709
2019-03-22T04:15:49.057Z,96705
2019-03-22T04:16:58.604Z,96707
2019-03-22T04:18:08.143Z,96706
2019-03-22T04:19:17.675Z,96706
2019-03-22T04:20:27.207Z,96704
2019-03-22T04:21:36.753Z,96705
2019-03-22T04:22:46.286Z,96705
2019-03-22T04:23:55.830Z,96709
2019-03-22T04:25:05.353Z,96709
2019-03-22T04:26:14.918Z,96708
2019-03-22T04:27:24.430Z,96711
2019-03-22T04:28:33.961Z,96708
2019-03-22T04:29:43.497Z,96712
2019-03-22T04:30:53.057Z,96711
2019-03-22T04:32:02.574Z,96710
2019-03-22T04:33:12.100Z,96713
2019-03-22T04:34:21.700Z,96712
2019-03-22T04:35:31.370Z,96713
2019-03-22T04:36:41.016Z,96712
2019-03-22T04:37:50.544Z,96712
2019-03-22T04:39:00.085Z,96713
2019-03-22T04:40:09.623Z,96714
2019-03-22T04:41:19.176Z,96717
2019-03-22T04:42:28.722Z,96717
2019-03-22T04:43:38.249Z,96717
2019-03-22T04:44:47.768Z,96718
2019-03-22T04:45:57.317Z,96721
2019-03-22T04:47:06.854Z,96724
2019-03-22T04:48:16.395Z,96724
2019-03-22T04:49:25.924Z,96725
2019-03-22T04:50:35.445Z,96731
2019-03-22T04:51:45.987Z,96722
2019-03-22T04:52:55.522Z,96726
2019-03-22T04:54:05.061Z,96728
2019-03-22T04:55:14.593Z,96730
2019-03-22T04:56:24.160Z,96731
2019-03-22T04:57:33.676Z,96732
2019-03-22T04:58:43.215Z,96733
2019-03-22T04:59:52.769Z,96729
2019-03-22T05:01:02.369Z,96726
2019-03-22T05:02:11.996Z,96734
2019-03-22T05:03:21.538Z,96726
2019-03-22T05:04:31.083Z,96728
2019-03-22T05:05:40.612Z,96723
2019-03-22T05:06:50.174Z,96724
2019-03-22T05:07:59.684Z,96723
2019-03-22T05:09:09.224Z,96723
2019-03-22T05:10:18.765Z,96715
2019-03-22T05:11:28.314Z,96711
2019-03-22T05:12:38.860Z,96715
2019-03-22T05:13:48.395Z,96709
2019-03-22T05:14:57.924Z,96709
2019-03-22T05:16:07.462Z,96709
2019-03-22T05:17:17.005Z,96709
2019-03-22T05:18:26.540Z,96709
2019-03-22T05:19:36.088Z,96709
2019-03-22T05:20:45.618Z,96715
2019-03-22T05:21:55.173Z,96715
2019-03-22T05:23:04.713Z,96719
2019-03-22T05:24:14.242Z,96718
2019-03-22T05:25:23.771Z,96720
2019-03-22T05:26:33.294Z,96724
2019-03-22T05:27:42.866Z,96726
2019-03-22T05:28:52.408Z,96729
2019-03-22T05:30:01.971Z,96735
2019-03-22T05:31:11.512Z,96732
2019-03-22T05:32:21.061Z,96731
2019-03-22T05:33:30.596Z,96729
2019-03-22T05:34:40.128Z,96734
2019-03-22T05:35:49.670Z,96736
2019-03-22T05:36:59.241Z,96736
2019-03-22T05:38:08.768Z,96736
2019-03-22T05:39:18.310Z,96741
2019-03-22T05:40:27.840Z,96742
2019-03-22T05:41:37.481Z,96744
2019-03-22T05:42:47.107Z,96746
2019-03-22T05:43:56.667Z,96752
2019-03-22T05:45:06.202Z,96754
2019-03-22T05:46:15.764Z,96754
2019-03-22T05:47:25.399Z,96760
2019-03-22T05:48:34.975Z,96749
2019-03-22T05:49:44.524Z,96754
2019-03-22T05:50:54.045Z,96752
2019-03-22T05:52:03.599Z,96754
2019-03-22T05:53:13.137Z,96754
2019-03-22T05:54:22.679Z,96752
2019-03-22T05:55:32.241Z,96749
2019-03-22T05:56:41.775Z,96753
2019-03-22T05:57:51.312Z,96749
2019-03-22T05:59:00.853Z,96754
2019-03-22T06:00:10.412Z,96753
2019-03-22T06:01:19.951Z,96753
2019-03-22T06:02:29.486Z,96753
2019-03-22T06:03:39.015Z,96751
2019-03-22T06:04:48.557Z,96751
2019-03-22T06:05:58.101Z,96750
2019-03-22T06:07:07.639Z,96750
2019-03-22T06:08:17.169Z,96751
2019-03-22T06:09:26.710Z,96755
2019-03-22T06:10:36.237Z,96754
2019-03-22T06:11:45.764Z,96756
2019-03-22T06:12:55.312Z,96760
2019-03-22T06:14:04.851Z,96765
2019-03-22T06:15:14.373Z,96766
2019-03-22T06:16:23.913Z,96771
2019-03-22T06:17:33.458Z,96776
2019-03-22T06:18:43.990Z,96774
2019-03-22T06:19:53.531Z,96779
2019-03-22T06:21:03.055Z,96780
2019-03-22T06:22:12.583Z,96781
2019-03-22T06:23:22.177Z,96779
2019-03-22T06:24:31.715Z,96778
2019-03-22T06:25:41.250Z,96771
2019-03-22T06:26:50.775Z,96772
2019-03-22T06:28:00.306Z,96774
2019-03-22T06:29:09.844Z,96776
2019-03-22T06:30:19.387Z,96778
2019-03-22T06:31:28.902Z,96782
2019-03-22T06:32:38.448Z,96781
2019-03-22T06:33:48.061Z,96778
2019-03-22T06:34:57.609Z,96783
2019-03-22T06:36:07.148Z,96781
2019-03-22T06:37:16.686Z,96785
2019-03-22T06:38:26.235Z,96782
2019-03-22T06:39:35.769Z,96790
2019-03-22T06:40:45.285Z,96792
2019-03-22T06:41:54.830Z,96789
2019-03-22T06:43:05.361Z,96795
2019-03-22T06:44:14.896Z,96792
2019-03-22T06:45:24.439Z,96784
2019-03-22T06:46:33.968Z,96782
2019-03-22T06:47:43.532Z,96789
2019-03-22T06:48:53.047Z,96787
2019-03-22T06:50:02.587Z,96787
2019-03-22T06:51:12.138Z,96787
2019-03-22T06:52:21.650Z,96793
2019-03-22T06:53:32.182Z,96793
2019-03-22T06:54:41.723Z,96793
2019-03-22T06:55:51.253Z,96795
2019-03-22T06:57:00.800Z,96789
2019-03-22T06:58:10.425Z,96791
2019-03-22T06:59:19.960Z,96791
2019-03-22T07:00:29.496Z,96790
2019-03-22T07:01:39.045Z,96791
2019-03-22T07:02:48.593Z,96793
2019-03-22T07:03:58.109Z,96788
2019-03-22T07:05:07.645Z,96787
2019-03-22T07:06:17.169Z,96790
2019-03-22T07:07:26.713Z,96788
2019-03-22T07:08:36.241Z,96791
2019-03-22T07:09:45.806Z,96795
2019-03-22T07:10:55.334Z,96795
2019-03-22T07:12:04.866Z,96793
2019-03-22T07:13:14.417Z,96793
2019-03-22T07:14:23.937Z,96798
2019-03-22T07:15:33.478Z,96798
2019-03-22T07:16:43.033Z,96805
2019-03-22T07:17:52.562Z,96806
2019-03-22T07:19:02.088Z,96803
2019-03-22T07:20:11.634Z,96807
2019-03-22T07:21:21.175Z,96809
2019-03-22T07:22:30.724Z,96805
2019-03-22T07:23:40.259Z,96805
2019-03-22T07:24:49.780Z,96801
2019-03-22T07:25:59.313Z,96801
2019-03-22T07:27:08.840Z,96799
2019-03-22T07:28:18.414Z,96798
2019-03-22T07:29:27.935Z,96798
2019-03-22T07:30:37.471Z,96799
2019-03-22T07:31:46.996Z,96802
2019-03-22T07:32:56.548Z,96799
2019-03-22T07:34:06.104Z,96803
2019-03-22T07:35:15.656Z,96808
2019-03-22T07:36:25.180Z,96801
2019-03-22T07:37:34.728Z,96796
2019-03-22T07:38:44.684Z,96802
2019-03-22T07:39:54.209Z,96800
2019-03-22T07:41:03.757Z,96800
2019-03-22T07:42:13.284Z,96798
2019-03-22T07:43:22.815Z,96788
2019-03-22T07:44:33.340Z,96784
2019-03-22T07:45:42.897Z,96793
2019-03-22T07:46:52.456Z,96791
2019-03-22T07:48:01.981Z,96794
2019-03-22T07:49:11.519Z,96793
2019-03-22T07:50:21.063Z,96797
2019-03-22T07:51:30.576Z,96800
2019-03-22T07:52:40.115Z,96799
2019-03-22T07:53:49.666Z,96801
2019-03-22T07:54:59.200Z,96808
2019-03-22T07:56:08.726Z,96811
2019-03-22T07:57:18.263Z,96805
2019-03-22T07:58:27.803Z,96800
2019-03-22T07:59:37.362Z,96803
2019-03-22T08:00:46.880Z,96796
2019-03-22T08:01:56.409Z,96795
2019-03-22T08:03:05.955Z,96802
2019-03-22T08:04:15.492Z,96804
2019-03-22T08:05:25.011Z,96801
2019-03-22T08:06:35.533Z,96797
2019-03-22T08:07:45.058Z,96793
2019-03-22T08:08:54.612Z,96798
2019-03-22T08:10:04.160Z,96796
2019-03-22T08:11:13.691Z,96797
2019-03-22T08:12:23.267Z,96800
2019-03-22T08:13:32.782Z,96801
2019-03-22T08:14:42.303Z,96801
2019-03-22T08:15:51.830Z,96803
2019-03-22T08:17:01.352Z,96799
2019-03-22T08:18:10.914Z,96800
2019-03-22T08:19:20.429Z,96799
2019-03-22T08:20:29.967Z,96799
2019-03-22T08:21:40.503Z,96799
2019-03-22T08:22:50.034Z,96797
2019-03-22T08:23:59.567Z,96795
2019-03-22T08:25:09.109Z,96791
2019-03-22T08:26:18.629Z,96791
2019-03-22T08:27:28.214Z,96788
2019-03-22T08:28:37.726Z,96791
2019-03-22T08:29:47.236Z,96791
2019-03-22T08:30:56.836Z,96791
2019-03-22T08:32:07.348Z,96788
2019-03-22T08:33:16.877Z,96790
2019-03-22T08:34:26.456Z,96791
2019-03-22T08:35:35.965Z,96793
2019-03-22T08:36:45.495Z,96787
2019-03-22T08:37:55.045Z,96786
2019-03-22T08:39:04.595Z,96783
2019-03-22T08:40:14.123Z,96787
2019-03-22T08:41:24.074Z,96787
2019-03-22T08:42:33.156Z,96787
2019-03-22T08:43:42.752Z,96788
2019-03-22T08:44:52.269Z,96780
2019-03-22T08:46:01.778Z,96783
2019-03-22T08:47:11.327Z,96780
2019-03-22T08:48:20.831Z,96785
2019-03-22T08:49:30.535Z,96790
2019-03-22T08:50:39.938Z,96788
2019-03-22T08:51:49.861Z,96790
2019-03-22T08:52:58.984Z,96792
2019-03-22T08:54:08.538Z,96794
2019-03-22T08:55:18.102Z,96792
2019-03-22T08:56:27.616Z,96794
2019-03-22T08:57:38.149Z,96796
2019-03-22T08:58:47.708Z,96797
2019-03-22T08:59:57.218Z,96794
2019-03-22T09:01:06.743Z,96796
2019-03-22T09:02:16.284Z,96800
2019-03-22T09:03:25.814Z,96794
2019-03-22T09:04:35.391Z,96798
2019-03-22T09:05:44.910Z,96793
2019-03-22T09:06:54.445Z,96792
2019-03-22T09:08:03.966Z,96793
2019-03-22T09:09:13.530Z,96799
2019-03-22T09:10:23.093Z,96798
2019-03-22T09:11:32.590Z,96797
2019-03-22T09:12:42.156Z,96798
2019-03-22T09:13:53.716Z,96796
2019-03-22T09:15:01.226Z,96794
2019-03-22T09:16:10.748Z,96799
2019-03-22T09:17:20.250Z,96797
2019-03-22T09:18:29.782Z,96800
2019-03-22T09:19:39.337Z,96797
2019-03-22T09:20:48.870Z,96798
2019-03-22T09:21:59.564Z,96795
2019-03-22T09:23:07.937Z,96797
2019-03-22T09:24:19.009Z,96797
2019-03-22T09:25:26.980Z,96798
2019-03-22T09:26:47.018Z,96797
2019-03-22T09:27:47.027Z,96795
2019-03-22T09:28:57.539Z,96799
2019-03-22T09:30:07.097Z,96790
2019-03-22T09:31:16.645Z,96790
2019-03-22T09:32:26.124Z,96788
2019-03-22T09:33:36.700Z,96797
2019-03-22T09:34:46.211Z,96791
2019-03-22T09:35:55.722Z,96793
2019-03-22T09:37:05.254Z,96797
2019-03-22T09:38:14.782Z,96795
2019-03-22T09:39:24.322Z,96796
2019-03-22T09:40:33.863Z,96802
2019-03-22T09:41:43.395Z,96800
2019-03-22T09:42:53.252Z,96802
2019-03-22T09:44:02.697Z,96798
2019-03-22T09:45:14.253Z,96798
2019-03-22T09:46:21.748Z,96797
2019-03-22T09:47:31.314Z,96798
2019-03-22T09:48:40.809Z,96793
2019-03-22T09:49:51.314Z,96792
2019-03-22T09:50:59.866Z,96793
2019-03-22T09:52:09.403Z,96792
2019-03-22T09:53:18.965Z,96793
2019-03-22T09:54:28.562Z,96792
2019-03-22T09:55:38.091Z,96792
2019-03-22T09:56:47.697Z,96789
2019-03-22T09:57:57.152Z,96787
2019-03-22T09:59:06.695Z,96787
2019-03-22T10:00:16.220Z,96781
2019-03-22T10:01:25.789Z,96780
2019-03-22T10:02:35.299Z,96786
2019-03-22T10:03:44.806Z,96784
2019-03-22T10:04:54.369Z,96783
2019-03-22T10:06:03.930Z,96784
2019-03-22T10:07:13.435Z,96781
2019-03-22T10:08:22.995Z,96786
2019-03-22T10:09:32.523Z,96781
2019-03-22T10:10:42.057Z,96788
2019-03-22T10:11:51.639Z,96785
2019-03-22T10:13:01.157Z,96779
2019-03-22T10:14:10.745Z,96781
2019-03-22T10:15:20.244Z,96776
2019-03-22T10:16:29.726Z,96780
2019-03-22T10:17:39.265Z,96776
2019-03-22T10:18:48.810Z,96779
2019-03-22T10:19:58.391Z,96781
2019-03-22T10:21:07.870Z,96782
2019-03-22T10:22:18.446Z,96780
2019-03-22T10:23:27.991Z,96778
2019-03-22T10:24:37.481Z,96780
2019-03-22T10:25:47.043Z,96780
2019-03-22T10:26:56.576Z,96782
2019-03-22T10:28:07.129Z,96782
2019-03-22T10:29:16.673Z,96781
2019-03-22T10:30:26.181Z,96781
2019-03-22T10:31:37.280Z,96778
2019-03-22T10:32:45.247Z,96780
2019-03-22T10:33:54.765Z,96780
2019-03-22T10:35:04.313Z,96783
2019-03-22T10:36:13.884Z,96778
2019-03-22T10:37:23.419Z,96782
2019-03-22T10:38:32.962Z,96780
2019-03-22T10:39:43.530Z,96778
2019-03-22T10:40:52.988Z,96776
2019-03-22T10:42:02.565Z,96778
2019-03-22T10:43:12.117Z,96778
2019-03-22T10:44:21.619Z,96777
2019-03-22T10:45:31.164Z,96777
2019-03-22T10:46:40.688Z,96772
2019-03-22T10:47:50.228Z,96776
2019-03-22T10:48:59.752Z,96772
2019-03-22T10:50:09.320Z,96773
2019-03-22T10:51:21.387Z,96773
2019-03-22T10:52:28.401Z,96771
2019-03-22T10:53:37.974Z,96767
2019-03-22T10:54:47.519Z,96764
2019-03-22T10:55:57.002Z,96772
2019-03-22T10:57:06.550Z,96772
2019-03-22T10:58:21.076Z,96770
2019-03-22T10:59:25.593Z,96771
2019-03-22T11:00:35.124Z,96772
2019-03-22T11:01:52.078Z,96769
2019-03-22T11:02:56.207Z,96778
2019-03-22T11:05:15.237Z,96771
2019-03-22T11:06:25.760Z,96773
2019-03-22T11:07:34.282Z,96771
2019-03-22T11:08:43.825Z,96771
2019-03-22T11:09:53.378Z,96771
2019-03-22T11:11:02.917Z,96770
2019-03-22T11:12:12.698Z,96770
2019-03-22T11:13:22.017Z,96767
2019-03-22T11:14:31.565Z,96764
2019-03-22T11:15:48.309Z,96765
2019-03-22T11:16:51.594Z,96767
2019-03-22T11:18:01.117Z,96769
2019-03-22T11:19:10.657Z,96765
2019-03-22T11:20:20.206Z,96762
2019-03-22T11:21:29.766Z,96760
2019-03-22T11:22:39.274Z,96760
2019-03-22T11:23:49.793Z,96755
2019-03-22T11:24:59.379Z,96756
2019-03-22T11:26:08.941Z,96753
2019-03-22T11:27:18.468Z,96754
2019-03-22T11:28:27.985Z,96757
2019-03-22T11:29:37.554Z,96757
2019-03-22T11:30:47.095Z,96750
2019-03-22T11:31:56.642Z,96752
2019-03-22T11:33:07.161Z,96753
2019-03-22T11:34:16.685Z,96747
2019-03-22T11:35:26.245Z,96752
2019-03-22T11:36:35.792Z,96750
2019-03-22T11:37:45.325Z,96751
2019-03-22T11:38:54.857Z,96758
2019-03-22T11:40:04.429Z,96753
2019-03-22T11:41:13.950Z,96754
2019-03-22T11:42:23.483Z,96757
2019-03-22T11:43:33.012Z,96754
2019-03-22T11:44:42.555Z,96755
2019-03-22T11:45:52.114Z,96750
2019-03-22T11:47:01.636Z,96750
2019-03-22T11:48:11.172Z,96751
2019-03-22T11:49:20.695Z,96749
2019-03-22T11:50:30.292Z,96748
2019-03-22T11:51:40.299Z,96738
2019-03-22T11:52:50.529Z,96742
2019-03-22T11:54:00.161Z,96740
2019-03-22T11:55:09.814Z,96741
2019-03-22T11:56:19.412Z,96739
2019-03-22T11:57:28.959Z,96734
2019-03-22T11:58:38.505Z,96744
2019-03-22T11:59:49.027Z,96739
2019-03-22T12:00:58.583Z,96741
2019-03-22T12:02:08.127Z,96737
2019-03-22T12:03:18.638Z,96734
2019-03-22T12:04:28.162Z,96732
2019-03-22T12:05:40.394Z,96729
2019-03-22T12:06:47.220Z,96729
2019-03-22T12:07:56.751Z,96735
2019-03-22T12:09:06.283Z,96732
2019-03-22T12:10:15.836Z,96727
2019-03-22T12:11:25.380Z,96728
2019-03-22T12:12:34.916Z,96725
2019-03-22T12:13:44.445Z,96727
2019-03-22T12:14:53.984Z,96719
2019-03-22T12:16:03.531Z,96724
2019-03-22T12:17:13.065Z,96722
2019-03-22T12:18:22.628Z,96725
2019-03-22T12:19:32.160Z,96727
2019-03-22T12:20:41.725Z,96726
2019-03-22T12:21:51.249Z,96720
2019-03-22T12:23:00.788Z,96723
2019-03-22T12:24:10.309Z,96723
2019-03-22T12:25:20.860Z,96722
2019-03-22T12:26:30.387Z,96719
2019-03-22T12:27:39.911Z,96716
2019-03-22T12:28:49.448Z,96712
2019-03-22T12:29:59.010Z,96709
2019-03-22T12:31:08.548Z,96715
2019-03-22T12:32:18.068Z,96712
2019-03-22T12:33:28.595Z,96714
2019-03-22T12:34:38.140Z,96714
2019-03-22T12:35:47.660Z,96712
2019-03-22T12:36:57.187Z,96718
2019-03-22T12:38:07.709Z,96718
2019-03-22T12:39:17.264Z,96720
2019-03-22T12:40:26.800Z,96714
2019-03-22T12:41:36.340Z,96712
2019-03-22T12:42:45.869Z,96708
2019-03-22T12:43:55.407Z,96706
2019-03-22T12:45:04.935Z,96702
2019-03-22T12:46:14.487Z,96706
2019-03-22T12:47:24.015Z,96698
2019-03-22T12:48:33.549Z,96703
2019-03-22T12:49:43.077Z,96705
2019-03-22T12:50:52.619Z,96702
2019-03-22T12:52:02.165Z,96696
2019-03-22T12:53:11.703Z,96700
2019-03-22T12:54:21.227Z,96701
2019-03-22T12:55:30.775Z,96706
2019-03-22T12:56:40.315Z,96705
2019-03-22T12:57:49.856Z,96702
2019-03-22T12:58:59.392Z,96697
2019-03-22T13:00:08.948Z,96698
2019-03-22T13:01:18.503Z,96695
2019-03-22T13:02:28.044Z,96691
2019-03-22T13:03:38.575Z,96693
2019-03-22T13:04:48.094Z,96689
2019-03-22T13:05:57.656Z,96691
2019-03-22T13:07:07.175Z,96688
2019-03-22T13:08:16.713Z,96685
2019-03-22T13:09:26.257Z,96684
2019-03-22T13:10:35.807Z,96688
2019-03-22T13:11:45.334Z,96687
2019-03-22T13:12:54.873Z,96689
2019-03-22T13:14:04.412Z,96687
2019-03-22T13:15:13.940Z,96685
2019-03-22T13:16:23.487Z,96683
2019-03-22T13:17:33.029Z,96684
2019-03-22T13:18:50.008Z,96685
2019-03-22T13:19:53.067Z,96688
2019-03-22T13:21:02.608Z,96689
2019-03-22T13:22:12.141Z,96686
2019-03-22T13:23:21.662Z,96686
2019-03-22T13:24:31.208Z,96684
2019-03-22T13:25:40.756Z,96683
2019-03-22T13:26:50.288Z,96682
2019-03-22T13:27:59.827Z,96682
2019-03-22T13:29:09.347Z,96680
2019-03-22T13:30:18.888Z,96670
2019-03-22T13:31:28.451Z,96673
2019-03-22T13:32:37.988Z,96673
2019-03-22T13:33:48.511Z,96676
2019-03-22T13:34:58.035Z,96670
2019-03-22T13:36:07.596Z,96666
2019-03-22T13:37:17.133Z,96672
2019-03-22T13:38:26.656Z,96668
2019-03-22T13:39:36.180Z,96671
2019-03-22T13:40:45.732Z,96669
2019-03-22T13:41:55.274Z,96668
2019-03-22T13:43:04.788Z,96669
2019-03-22T13:44:14.321Z,96672
2019-03-22T13:45:23.851Z,96667
2019-03-22T13:46:40.083Z,96670
2019-03-22T13:47:43.908Z,96670
2019-03-22T13:48:53.446Z,96663
2019-03-22T13:50:02.972Z,96663
2019-03-22T13:51:12.695Z,96659
2019-03-22T13:52:22.237Z,96663
2019-03-22T13:53:31.770Z,96662
2019-03-22T13:54:41.294Z,96659
2019-03-22T13:55:50.854Z,96658
2019-03-22T13:57:00.408Z,96660
2019-03-22T13:58:09.924Z,96659
2019-03-22T13:59:19.432Z,96662
2019-03-22T14:00:28.962Z,96664
2019-03-22T14:01:38.546Z,96664
2019-03-22T14:02:48.035Z,96666
2019-03-22T14:03:58.563Z,96655
2019-03-22T14:05:08.085Z,96660
2019-03-22T14:06:17.665Z,96660
2019-03-22T14:07:27.183Z,96662
2019-03-22T14:08:36.707Z,96661
2019-03-22T14:09:46.237Z,96666
2019-03-22T14:10:55.771Z,96662
2019-03-22T14:12:05.323Z,96665
2019-03-22T14:13:14.867Z,96662
2019-03-22T14:14:24.399Z,96667
2019-03-22T14:15:33.933Z,96666
2019-03-22T14:16:43.498Z,96671
2019-03-22T14:17:53.049Z,96667
2019-03-22T14:19:02.582Z,96671
2019-03-22T14:20:12.103Z,96666
2019-03-22T14:21:21.646Z,96660
2019-03-22T14:22:31.180Z,96660
2019-03-22T14:23:40.710Z,96661
2019-03-22T14:24:50.231Z,96656
2019-03-22T14:25:59.769Z,96654
2019-03-22T14:27:09.350Z,96656
2019-03-22T14:28:18.856Z,96658
2019-03-22T14:29:28.392Z,96655
2019-03-22T14:30:37.938Z,96654
2019-03-22T14:31:47.474Z,96657
2019-03-22T14:32:57.091Z,96657
2019-03-22T14:34:07.693Z,96653
2019-03-22T14:35:17.234Z,96654
2019-03-22T14:36:26.778Z,96651
2019-03-22T14:37:36.307Z,96652
2019-03-22T14:38:45.891Z,96650
2019-03-22T14:39:55.426Z,96651
2019-03-22T14:41:04.978Z,96648
2019-03-22T14:42:14.529Z,96650
2019-03-22T14:43:24.070Z,96646
2019-03-22T14:44:33.613Z,96647
2019-03-22T14:45:43.135Z,96648
2019-03-22T14:46:52.693Z,96643
2019-03-22T14:48:02.197Z,96641
2019-03-22T14:49:12.720Z,96640
2019-03-22T14:50:22.316Z,96638
2019-03-22T14:51:31.873Z,96641
2019-03-22T14:52:41.390Z,96639
2019-03-22T14:53:51.265Z,96632
2019-03-22T14:55:00.777Z,96637
2019-03-22T14:56:10.305Z,96638
2019-03-22T14:57:19.863Z,96637